sensor_id;sensor_type;location;lat;lon;timestamp;temperature;humidity
5134;DHT22;2585;48.696;10.066;2022-09-09T00:04:31;10.30;91.40
5134;DHT22;2585;48.696;10.066;2022-09-09T00:12:36;10.20;91.40
5134;DHT22;2585;48.696;10.066;2022-09-09T00:15:12;10.20;91.40
5134;DHT22;2585;48.696;10.066;2022-09-09T00:18:01;10.20;91.40
5134;DHT22;2585;48.696;10.066;2022-09-09T00:20:39;10.30;91.50
5134;DHT22;2585;48.696;10.066;2022-09-09T00:23:19;10.30;91.40
5134;DHT22;2585;48.696;10.066;2022-09-09T00:28:26;10.20;91.40
5134;DHT22;2585;48.696;10.066;2022-09-09T00:30:53;10.20;91.30
5134;DHT22;2585;48.696;10.066;2022-09-09T00:33:24;10.20;91.40
5134;DHT22;2585;48.696;10.066;2022-09-09T00:35:54;10.20;91.40
5134;DHT22;2585;48.696;10.066;2022-09-09T00:38:36;10.10;91.30
5134;DHT22;2585;48.696;10.066;2022-09-09T00:44:27;10.00;91.40
5134;DHT22;2585;48.696;10.066;2022-09-09T00:47:04;10.00;91.50
5134;DHT22;2585;48.696;10.066;2022-09-09T00:52:22;9.90;91.80
5134;DHT22;2585;48.696;10.066;2022-09-09T00:57:30;9.90;91.80
5134;DHT22;2585;48.696;10.066;2022-09-09T01:08:04;9.80;91.70
5134;DHT22;2585;48.696;10.066;2022-09-09T01:10:41;9.80;91.70
5134;DHT22;2585;48.696;10.066;2022-09-09T01:13:33;9.80;91.80
5134;DHT22;2585;48.696;10.066;2022-09-09T01:16:03;9.80;91.80
5134;DHT22;2585;48.696;10.066;2022-09-09T01:18:44;9.80;91.70
5134;DHT22;2585;48.696;10.066;2022-09-09T01:21:29;9.70;91.70
5134;DHT22;2585;48.696;10.066;2022-09-09T01:24:26;9.70;91.70
5134;DHT22;2585;48.696;10.066;2022-09-09T01:27:00;9.70;91.80
5134;DHT22;2585;48.696;10.066;2022-09-09T01:29:28;9.70;91.80
5134;DHT22;2585;48.696;10.066;2022-09-09T01:35:02;9.70;91.80
5134;DHT22;2585;48.696;10.066;2022-09-09T01:37:28;9.60;91.80
5134;DHT22;2585;48.696;10.066;2022-09-09T01:39:55;9.60;91.80
5134;DHT22;2585;48.696;10.066;2022-09-09T01:42:22;9.60;91.80
5134;DHT22;2585;48.696;10.066;2022-09-09T01:44:48;9.60;91.80
5134;DHT22;2585;48.696;10.066;2022-09-09T01:47:15;9.60;91.80
5134;DHT22;2585;48.696;10.066;2022-09-09T01:49:42;9.60;91.80
5134;DHT22;2585;48.696;10.066;2022-09-09T01:52:09;9.60;91.80
5134;DHT22;2585;48.696;10.066;2022-09-09T01:54:36;9.50;91.80
5134;DHT22;2585;48.696;10.066;2022-09-09T01:57:19;9.50;91.80
5134;DHT22;2585;48.696;10.066;2022-09-09T02:00:00;9.50;91.80
5134;DHT22;2585;48.696;10.066;2022-09-09T02:02:44;9.40;91.70
5134;DHT22;2585;48.696;10.066;2022-09-09T02:07:50;9.50;91.80
5134;DHT22;2585;48.696;10.066;2022-09-09T02:10:25;9.40;91.80
5134;DHT22;2585;48.696;10.066;2022-09-09T02:12:56;9.40;91.70
5134;DHT22;2585;48.696;10.066;2022-09-09T02:15:32;9.40;91.70
5134;DHT22;2585;48.696;10.066;2022-09-09T02:18:04;9.40;91.70
5134;DHT22;2585;48.696;10.066;2022-09-09T02:20:37;9.40;91.70
5134;DHT22;2585;48.696;10.066;2022-09-09T02:23:05;9.30;91.70
5134;DHT22;2585;48.696;10.066;2022-09-09T02:25:36;9.30;91.80
5134;DHT22;2585;48.696;10.066;2022-09-09T02:28:08;9.30;91.80
5134;DHT22;2585;48.696;10.066;2022-09-09T02:30:37;9.30;91.80
5134;DHT22;2585;48.696;10.066;2022-09-09T02:33:07;9.40;91.80
5134;DHT22;2585;48.696;10.066;2022-09-09T02:35:37;9.30;91.80
5134;DHT22;2585;48.696;10.066;2022-09-09T02:38:08;9.30;91.70
5134;DHT22;2585;48.696;10.066;2022-09-09T02:40:36;9.30;91.70
5134;DHT22;2585;48.696;10.066;2022-09-09T02:43:03;9.20;91.70
5134;DHT22;2585;48.696;10.066;2022-09-09T02:51:28;9.20;91.80
5134;DHT22;2585;48.696;10.066;2022-09-09T02:54:17;9.20;91.70
5134;DHT22;2585;48.696;10.066;2022-09-09T02:56:53;9.20;91.70
5134;DHT22;2585;48.696;10.066;2022-09-09T02:59:25;9.30;91.80
5134;DHT22;2585;48.696;10.066;2022-09-09T03:01:52;9.20;91.70
5134;DHT22;2585;48.696;10.066;2022-09-09T03:04:19;9.10;91.70
5134;DHT22;2585;48.696;10.066;2022-09-09T03:06:47;9.10;91.70
5134;DHT22;2585;48.696;10.066;2022-09-09T03:09:13;9.10;91.70
5134;DHT22;2585;48.696;10.066;2022-09-09T03:11:40;9.10;91.70
5134;DHT22;2585;48.696;10.066;2022-09-09T03:14:07;9.10;91.80
5134;DHT22;2585;48.696;10.066;2022-09-09T03:16:34;9.10;91.80
5134;DHT22;2585;48.696;10.066;2022-09-09T03:19:01;9.20;91.80
5134;DHT22;2585;48.696;10.066;2022-09-09T03:21:28;9.20;91.80
5134;DHT22;2585;48.696;10.066;2022-09-09T03:23:55;9.30;91.90
5134;DHT22;2585;48.696;10.066;2022-09-09T03:26:22;9.40;91.90
5134;DHT22;2585;48.696;10.066;2022-09-09T03:28:49;9.40;91.90
5134;DHT22;2585;48.696;10.066;2022-09-09T03:31:18;9.40;91.90
5134;DHT22;2585;48.696;10.066;2022-09-09T03:33:46;9.40;91.90
5134;DHT22;2585;48.696;10.066;2022-09-09T03:36:12;9.40;91.90
5134;DHT22;2585;48.696;10.066;2022-09-09T03:38:39;9.40;91.90
5134;DHT22;2585;48.696;10.066;2022-09-09T03:41:06;9.40;91.90
5134;DHT22;2585;48.696;10.066;2022-09-09T03:43:34;9.30;91.90
5134;DHT22;2585;48.696;10.066;2022-09-09T03:46:01;9.40;91.90
5134;DHT22;2585;48.696;10.066;2022-09-09T03:48:28;9.40;91.90
5134;DHT22;2585;48.696;10.066;2022-09-09T03:50:55;9.40;92.00
5134;DHT22;2585;48.696;10.066;2022-09-09T03:53:24;9.50;92.00
5134;DHT22;2585;48.696;10.066;2022-09-09T03:55:54;9.40;92.00
5134;DHT22;2585;48.696;10.066;2022-09-09T03:58:26;9.40;92.00
5134;DHT22;2585;48.696;10.066;2022-09-09T04:00:58;9.50;92.00
5134;DHT22;2585;48.696;10.066;2022-09-09T04:03:25;9.50;92.00
5134;DHT22;2585;48.696;10.066;2022-09-09T04:05:55;9.60;92.00
5134;DHT22;2585;48.696;10.066;2022-09-09T04:08:22;9.70;92.10
5134;DHT22;2585;48.696;10.066;2022-09-09T04:10:52;9.70;92.10
5134;DHT22;2585;48.696;10.066;2022-09-09T04:13:19;9.70;92.10
5134;DHT22;2585;48.696;10.066;2022-09-09T04:15:54;9.70;92.10
5134;DHT22;2585;48.696;10.066;2022-09-09T04:18:21;9.80;92.10
5134;DHT22;2585;48.696;10.066;2022-09-09T04:20:49;9.80;92.10
5134;DHT22;2585;48.696;10.066;2022-09-09T04:23:17;9.90;92.10
5134;DHT22;2585;48.696;10.066;2022-09-09T04:25:52;9.90;92.10
5134;DHT22;2585;48.696;10.066;2022-09-09T04:28:22;9.90;92.10
5134;DHT22;2585;48.696;10.066;2022-09-09T04:30:50;10.00;91.80
5134;DHT22;2585;48.696;10.066;2022-09-09T04:33:17;9.90;92.10
5134;DHT22;2585;48.696;10.066;2022-09-09T04:35:48;9.90;92.10
5134;DHT22;2585;48.696;10.066;2022-09-09T04:38:16;10.00;91.80
5134;DHT22;2585;48.696;10.066;2022-09-09T04:40:46;10.00;91.90
5134;DHT22;2585;48.696;10.066;2022-09-09T04:43:13;10.10;91.90
5134;DHT22;2585;48.696;10.066;2022-09-09T04:45:43;10.10;91.90
5134;DHT22;2585;48.696;10.066;2022-09-09T04:48:10;10.10;91.90
5134;DHT22;2585;48.696;10.066;2022-09-09T04:50:37;10.20;91.90
5134;DHT22;2585;48.696;10.066;2022-09-09T04:53:05;10.20;91.90
5134;DHT22;2585;48.696;10.066;2022-09-09T04:55:32;10.20;91.90
5134;DHT22;2585;48.696;10.066;2022-09-09T04:58:07;10.20;91.90
5134;DHT22;2585;48.696;10.066;2022-09-09T05:00:35;10.20;91.90
5134;DHT22;2585;48.696;10.066;2022-09-09T05:03:04;10.20;91.90
5134;DHT22;2585;48.696;10.066;2022-09-09T05:05:32;10.20;91.90
5134;DHT22;2585;48.696;10.066;2022-09-09T05:08:04;10.20;91.90
5134;DHT22;2585;48.696;10.066;2022-09-09T05:10:32;10.20;91.90
5134;DHT22;2585;48.696;10.066;2022-09-09T05:12:59;10.20;91.90
5134;DHT22;2585;48.696;10.066;2022-09-09T05:15:25;10.20;92.00
5134;DHT22;2585;48.696;10.066;2022-09-09T05:17:52;10.30;92.00
5134;DHT22;2585;48.696;10.066;2022-09-09T05:20:19;10.30;92.00
5134;DHT22;2585;48.696;10.066;2022-09-09T05:22:46;10.30;92.00
5134;DHT22;2585;48.696;10.066;2022-09-09T05:25:13;10.40;92.00
5134;DHT22;2585;48.696;10.066;2022-09-09T05:27:40;10.40;92.00
5134;DHT22;2585;48.696;10.066;2022-09-09T05:30:07;10.40;92.00
5134;DHT22;2585;48.696;10.066;2022-09-09T05:32:34;10.50;92.10
5134;DHT22;2585;48.696;10.066;2022-09-09T05:35:01;10.50;92.10
5134;DHT22;2585;48.696;10.066;2022-09-09T05:37:28;10.50;92.10
5134;DHT22;2585;48.696;10.066;2022-09-09T05:39:56;10.50;92.10
5134;DHT22;2585;48.696;10.066;2022-09-09T05:42:24;10.60;92.10
5134;DHT22;2585;48.696;10.066;2022-09-09T05:44:51;10.60;92.10
5134;DHT22;2585;48.696;10.066;2022-09-09T05:47:20;10.70;92.10
5134;DHT22;2585;48.696;10.066;2022-09-09T05:49:47;10.60;92.10
5134;DHT22;2585;48.696;10.066;2022-09-09T05:52:14;10.60;92.10
5134;DHT22;2585;48.696;10.066;2022-09-09T05:54:41;10.70;92.10
5134;DHT22;2585;48.696;10.066;2022-09-09T05:57:09;10.60;92.10
5134;DHT22;2585;48.696;10.066;2022-09-09T05:59:35;10.60;92.10
5134;DHT22;2585;48.696;10.066;2022-09-09T06:02:02;10.70;92.10
5134;DHT22;2585;48.696;10.066;2022-09-09T06:04:29;10.70;92.10
5134;DHT22;2585;48.696;10.066;2022-09-09T06:06:57;10.70;92.10
5134;DHT22;2585;48.696;10.066;2022-09-09T06:09:23;10.80;92.10
5134;DHT22;2585;48.696;10.066;2022-09-09T06:11:50;10.80;92.10
5134;DHT22;2585;48.696;10.066;2022-09-09T06:14:17;10.90;92.20
5134;DHT22;2585;48.696;10.066;2022-09-09T06:16:44;10.80;92.10
5134;DHT22;2585;48.696;10.066;2022-09-09T06:19:11;10.80;92.10
5134;DHT22;2585;48.696;10.066;2022-09-09T06:21:39;10.90;92.20
5134;DHT22;2585;48.696;10.066;2022-09-09T06:24:06;11.00;92.20
5134;DHT22;2585;48.696;10.066;2022-09-09T06:26:38;11.20;92.30
5134;DHT22;2585;48.696;10.066;2022-09-09T06:29:08;11.30;92.30
5134;DHT22;2585;48.696;10.066;2022-09-09T06:31:36;11.30;92.30
5134;DHT22;2585;48.696;10.066;2022-09-09T06:34:07;11.50;92.30
5134;DHT22;2585;48.696;10.066;2022-09-09T06:36:36;11.60;92.30
5134;DHT22;2585;48.696;10.066;2022-09-09T06:39:05;11.70;92.40
5134;DHT22;2585;48.696;10.066;2022-09-09T06:41:36;11.90;92.40
5134;DHT22;2585;48.696;10.066;2022-09-09T06:44:04;12.10;92.50
5134;DHT22;2585;48.696;10.066;2022-09-09T06:46:31;12.10;92.50
5134;DHT22;2585;48.696;10.066;2022-09-09T06:49:02;12.20;92.50
5134;DHT22;2585;48.696;10.066;2022-09-09T06:51:31;12.30;92.50
5134;DHT22;2585;48.696;10.066;2022-09-09T06:54:00;12.40;92.50
5134;DHT22;2585;48.696;10.066;2022-09-09T06:56:35;12.50;92.60
5134;DHT22;2585;48.696;10.066;2022-09-09T06:59:04;12.50;92.60
5134;DHT22;2585;48.696;10.066;2022-09-09T07:01:33;12.70;92.60
5134;DHT22;2585;48.696;10.066;2022-09-09T07:04:00;13.00;92.70
5134;DHT22;2585;48.696;10.066;2022-09-09T07:06:30;13.40;92.80
5134;DHT22;2585;48.696;10.066;2022-09-09T07:09:02;13.70;92.80
5134;DHT22;2585;48.696;10.066;2022-09-09T07:11:33;14.10;92.90
5134;DHT22;2585;48.696;10.066;2022-09-09T07:14:00;14.40;92.90
5134;DHT22;2585;48.696;10.066;2022-09-09T07:16:28;14.60;92.70
5134;DHT22;2585;48.696;10.066;2022-09-09T07:18:56;15.10;92.70
5134;DHT22;2585;48.696;10.066;2022-09-09T07:21:26;15.40;92.60
5134;DHT22;2585;48.696;10.066;2022-09-09T07:23:54;15.60;91.70
5134;DHT22;2585;48.696;10.066;2022-09-09T07:26:23;15.60;89.50
5134;DHT22;2585;48.696;10.066;2022-09-09T07:28:50;15.90;81.90
5134;DHT22;2585;48.696;10.066;2022-09-09T07:31:19;16.40;76.60
5134;DHT22;2585;48.696;10.066;2022-09-09T07:33:47;16.70;68.10
5134;DHT22;2585;48.696;10.066;2022-09-09T07:36:23;16.70;61.70
5134;DHT22;2585;48.696;10.066;2022-09-09T07:38:53;16.90;61.30
5134;DHT22;2585;48.696;10.066;2022-09-09T07:41:21;17.30;49.60
5134;DHT22;2585;48.696;10.066;2022-09-09T07:43:49;17.90;45.80
5134;DHT22;2585;48.696;10.066;2022-09-09T07:46:18;17.80;20.20
5134;DHT22;2585;48.696;10.066;2022-09-09T07:48:50;17.80;18.20
5134;DHT22;2585;48.696;10.066;2022-09-09T07:51:20;17.60;19.70
5134;DHT22;2585;48.696;10.066;2022-09-09T07:53:52;17.40;15.60
5134;DHT22;2585;48.696;10.066;2022-09-09T07:56:19;17.40;20.90
5134;DHT22;2585;48.696;10.066;2022-09-09T07:58:51;17.60;20.50
5134;DHT22;2585;48.696;10.066;2022-09-09T08:01:25;18.00;24.30
5134;DHT22;2585;48.696;10.066;2022-09-09T08:03:55;18.20;16.20
5134;DHT22;2585;48.696;10.066;2022-09-09T08:06:22;18.30;12.20
5134;DHT22;2585;48.696;10.066;2022-09-09T08:08:52;18.50;16.50
5134;DHT22;2585;48.696;10.066;2022-09-09T08:11:22;18.60;14.30
5134;DHT22;2585;48.696;10.066;2022-09-09T08:13:50;18.60;10.80
5134;DHT22;2585;48.696;10.066;2022-09-09T08:16:24;18.70;13.90
5134;DHT22;2585;48.696;10.066;2022-09-09T08:18:52;18.80;10.00
5134;DHT22;2585;48.696;10.066;2022-09-09T08:21:28;19.00;9.70
5134;DHT22;2585;48.696;10.066;2022-09-09T08:23:56;19.30;3.10
5134;DHT22;2585;48.696;10.066;2022-09-09T08:26:34;19.40;3.50
5134;DHT22;2585;48.696;10.066;2022-09-09T08:29:03;19.20;3.90
5134;DHT22;2585;48.696;10.066;2022-09-09T08:31:39;18.90;3.70
5134;DHT22;2585;48.696;10.066;2022-09-09T08:34:07;18.90;1.00
5134;DHT22;2585;48.696;10.066;2022-09-09T08:36:38;19.00;1.00
5134;DHT22;2585;48.696;10.066;2022-09-09T08:39:06;19.20;1.00
5134;DHT22;2585;48.696;10.066;2022-09-09T08:55:57;18.90;1.00
5134;DHT22;2585;48.696;10.066;2022-09-09T08:58:28;18.80;1.00
5134;DHT22;2585;48.696;10.066;2022-09-09T09:06:47;18.30;1.00
5134;DHT22;2585;48.696;10.066;2022-09-09T09:09:22;17.90;1.00
5134;DHT22;2585;48.696;10.066;2022-09-09T09:11:54;17.90;1.00
5134;DHT22;2585;48.696;10.066;2022-09-09T09:14:25;17.90;1.00
5134;DHT22;2585;48.696;10.066;2022-09-09T09:17:02;18.10;1.00
5134;DHT22;2585;48.696;10.066;2022-09-09T09:19:32;18.30;1.00
5134;DHT22;2585;48.696;10.066;2022-09-09T09:24:56;19.00;1.00
5134;DHT22;2585;48.696;10.066;2022-09-09T09:27:33;19.10;1.00
5134;DHT22;2585;48.696;10.066;2022-09-09T09:30:12;19.60;1.00
5134;DHT22;2585;48.696;10.066;2022-09-09T09:33:00;20.00;1.00
5134;DHT22;2585;48.696;10.066;2022-09-09T09:35:28;19.80;1.00
5134;DHT22;2585;48.696;10.066;2022-09-09T09:37:55;19.80;1.00
5134;DHT22;2585;48.696;10.066;2022-09-09T09:40:49;19.70;1.00
5134;DHT22;2585;48.696;10.066;2022-09-09T09:43:34;19.80;1.00
5134;DHT22;2585;48.696;10.066;2022-09-09T09:46:04;20.00;1.00
5134;DHT22;2585;48.696;10.066;2022-09-09T09:48:43;20.40;1.00
5134;DHT22;2585;48.696;10.066;2022-09-09T09:51:13;20.30;1.00
5134;DHT22;2585;48.696;10.066;2022-09-09T09:53:42;20.00;1.00
5134;DHT22;2585;48.696;10.066;2022-09-09T09:56:12;19.90;1.00
5134;DHT22;2585;48.696;10.066;2022-09-09T10:01:25;19.30;1.00
5134;DHT22;2585;48.696;10.066;2022-09-09T10:03:58;19.50;1.00
5134;DHT22;2585;48.696;10.066;2022-09-09T10:06:34;19.80;1.00
5134;DHT22;2585;48.696;10.066;2022-09-09T10:09:03;19.60;1.00
5134;DHT22;2585;48.696;10.066;2022-09-09T10:14:44;19.50;1.00
5134;DHT22;2585;48.696;10.066;2022-09-09T10:17:18;19.60;1.00
5134;DHT22;2585;48.696;10.066;2022-09-09T10:20:11;19.90;1.00
5134;DHT22;2585;48.696;10.066;2022-09-09T10:28:58;19.90;1.00
5134;DHT22;2585;48.696;10.066;2022-09-09T10:31:49;20.10;1.00
5134;DHT22;2585;48.696;10.066;2022-09-09T10:34:53;20.80;1.00
5134;DHT22;2585;48.696;10.066;2022-09-09T10:37:41;21.70;1.00
5134;DHT22;2585;48.696;10.066;2022-09-09T10:49:13;23.00;1.00
5134;DHT22;2585;48.696;10.066;2022-09-09T10:52:13;22.00;1.00
5134;DHT22;2585;48.696;10.066;2022-09-09T10:59:54;20.90;1.00
5134;DHT22;2585;48.696;10.066;2022-09-09T11:02:31;20.70;1.00
5134;DHT22;2585;48.696;10.066;2022-09-09T11:08:00;20.40;1.00
5134;DHT22;2585;48.696;10.066;2022-09-09T11:10:34;20.10;1.00
5134;DHT22;2585;48.696;10.066;2022-09-09T11:16:17;19.90;1.00
5134;DHT22;2585;48.696;10.066;2022-09-09T11:18:46;20.10;1.00
5134;DHT22;2585;48.696;10.066;2022-09-09T11:21:29;20.50;1.00
5134;DHT22;2585;48.696;10.066;2022-09-09T11:24:10;21.20;1.00
5134;DHT22;2585;48.696;10.066;2022-09-09T11:27:06;22.60;1.00
5134;DHT22;2585;48.696;10.066;2022-09-09T11:38:15;21.50;1.00
5134;DHT22;2585;48.696;10.066;2022-09-09T11:40:45;21.10;1.00
5134;DHT22;2585;48.696;10.066;2022-09-09T11:43:20;21.10;1.00
5134;DHT22;2585;48.696;10.066;2022-09-09T11:45:54;20.70;1.00
5134;DHT22;2585;48.696;10.066;2022-09-09T11:48:36;20.60;1.00
5134;DHT22;2585;48.696;10.066;2022-09-09T11:51:09;20.70;1.00
5134;DHT22;2585;48.696;10.066;2022-09-09T11:59:01;22.00;1.00
5134;DHT22;2585;48.696;10.066;2022-09-09T12:01:43;22.70;1.00
5134;DHT22;2585;48.696;10.066;2022-09-09T12:04:26;22.30;1.00
5134;DHT22;2585;48.696;10.066;2022-09-09T12:06:59;21.50;1.00
5134;DHT22;2585;48.696;10.066;2022-09-09T12:12:32;21.00;1.00
5134;DHT22;2585;48.696;10.066;2022-09-09T12:17:49;21.80;1.00
5134;DHT22;2585;48.696;10.066;2022-09-09T12:33:46;22.90;1.00
5134;DHT22;2585;48.696;10.066;2022-09-09T12:36:18;23.20;1.00
5134;DHT22;2585;48.696;10.066;2022-09-09T12:38:46;23.60;1.00
5134;DHT22;2585;48.696;10.066;2022-09-09T12:41:24;23.50;1.00
5134;DHT22;2585;48.696;10.066;2022-09-09T12:43:51;23.30;1.00
5134;DHT22;2585;48.696;10.066;2022-09-09T12:46:41;24.10;1.00
5134;DHT22;2585;48.696;10.066;2022-09-09T12:49:28;24.00;1.00
5134;DHT22;2585;48.696;10.066;2022-09-09T12:51:57;23.70;1.00
5134;DHT22;2585;48.696;10.066;2022-09-09T12:54:25;23.20;1.00
5134;DHT22;2585;48.696;10.066;2022-09-09T12:56:51;22.70;1.00
5134;DHT22;2585;48.696;10.066;2022-09-09T12:59:34;21.70;1.00
5134;DHT22;2585;48.696;10.066;2022-09-09T13:02:01;22.20;1.00
5134;DHT22;2585;48.696;10.066;2022-09-09T13:04:28;22.70;1.00
5134;DHT22;2585;48.696;10.066;2022-09-09T13:07:06;23.20;1.00
5134;DHT22;2585;48.696;10.066;2022-09-09T13:09:33;23.10;1.00
5134;DHT22;2585;48.696;10.066;2022-09-09T13:12:00;23.30;1.00
5134;DHT22;2585;48.696;10.066;2022-09-09T13:14:32;23.20;1.00
5134;DHT22;2585;48.696;10.066;2022-09-09T13:17:03;23.20;1.00
5134;DHT22;2585;48.696;10.066;2022-09-09T13:19:34;23.40;1.00
5134;DHT22;2585;48.696;10.066;2022-09-09T13:22:30;23.70;1.00
5134;DHT22;2585;48.696;10.066;2022-09-09T13:25:06;23.80;1.00
5134;DHT22;2585;48.696;10.066;2022-09-09T13:28:01;24.10;1.00
5134;DHT22;2585;48.696;10.066;2022-09-09T13:30:31;23.70;1.00
5134;DHT22;2585;48.696;10.066;2022-09-09T13:35:56;23.10;1.00
5134;DHT22;2585;48.696;10.066;2022-09-09T13:38:23;22.70;1.00
5134;DHT22;2585;48.696;10.066;2022-09-09T13:40:57;23.00;1.00
5134;DHT22;2585;48.696;10.066;2022-09-09T13:43:26;22.50;1.00
5134;DHT22;2585;48.696;10.066;2022-09-09T13:45:59;21.80;1.00
5134;DHT22;2585;48.696;10.066;2022-09-09T13:48:27;21.10;1.00
5134;DHT22;2585;48.696;10.066;2022-09-09T13:50:59;21.00;1.00
5134;DHT22;2585;48.696;10.066;2022-09-09T13:53:26;21.00;1.00
5134;DHT22;2585;48.696;10.066;2022-09-09T13:55:53;21.00;1.00
5134;DHT22;2585;48.696;10.066;2022-09-09T13:58:20;20.70;1.00
5134;DHT22;2585;48.696;10.066;2022-09-09T14:00:48;20.60;1.00
5134;DHT22;2585;48.696;10.066;2022-09-09T14:03:16;20.40;1.00
5134;DHT22;2585;48.696;10.066;2022-09-09T14:05:44;20.30;1.00
5134;DHT22;2585;48.696;10.066;2022-09-09T14:08:20;20.30;1.00
5134;DHT22;2585;48.696;10.066;2022-09-09T14:10:48;20.40;1.00
5134;DHT22;2585;48.696;10.066;2022-09-09T14:13:14;20.50;1.00
5134;DHT22;2585;48.696;10.066;2022-09-09T14:15:42;20.50;1.00
5134;DHT22;2585;48.696;10.066;2022-09-09T14:18:12;21.10;1.00
5134;DHT22;2585;48.696;10.066;2022-09-09T14:20:40;22.10;1.00
5134;DHT22;2585;48.696;10.066;2022-09-09T14:23:10;22.20;1.00
5134;DHT22;2585;48.696;10.066;2022-09-09T14:25:40;22.40;1.00
5134;DHT22;2585;48.696;10.066;2022-09-09T14:28:10;22.50;1.00
5134;DHT22;2585;48.696;10.066;2022-09-09T14:30:40;22.20;1.00
5134;DHT22;2585;48.696;10.066;2022-09-09T14:33:13;22.30;1.00
5134;DHT22;2585;48.696;10.066;2022-09-09T14:35:40;22.00;1.00
5134;DHT22;2585;48.696;10.066;2022-09-09T14:38:08;21.80;1.00
5134;DHT22;2585;48.696;10.066;2022-09-09T14:40:38;21.60;1.00
5134;DHT22;2585;48.696;10.066;2022-09-09T14:43:05;21.50;1.00
5134;DHT22;2585;48.696;10.066;2022-09-09T14:45:32;21.70;1.00
5134;DHT22;2585;48.696;10.066;2022-09-09T14:47:59;22.00;1.00
5134;DHT22;2585;48.696;10.066;2022-09-09T14:50:26;21.80;1.00
5134;DHT22;2585;48.696;10.066;2022-09-09T14:52:53;21.60;1.00
5134;DHT22;2585;48.696;10.066;2022-09-09T14:55:20;21.60;1.00
5134;DHT22;2585;48.696;10.066;2022-09-09T14:57:47;21.60;1.00
5134;DHT22;2585;48.696;10.066;2022-09-09T15:00:14;21.30;1.00
5134;DHT22;2585;48.696;10.066;2022-09-09T15:02:42;21.30;1.00
5134;DHT22;2585;48.696;10.066;2022-09-09T15:05:09;21.40;1.00
5134;DHT22;2585;48.696;10.066;2022-09-09T15:07:36;21.10;1.00
5134;DHT22;2585;48.696;10.066;2022-09-09T15:10:04;20.80;1.00
5134;DHT22;2585;48.696;10.066;2022-09-09T15:12:31;20.80;1.00
5134;DHT22;2585;48.696;10.066;2022-09-09T15:14:59;20.80;1.00
5134;DHT22;2585;48.696;10.066;2022-09-09T15:17:26;20.30;1.00
5134;DHT22;2585;48.696;10.066;2022-09-09T15:19:53;20.10;1.00
5134;DHT22;2585;48.696;10.066;2022-09-09T15:22:21;19.80;1.00
5134;DHT22;2585;48.696;10.066;2022-09-09T15:24:48;19.70;1.00
5134;DHT22;2585;48.696;10.066;2022-09-09T15:27:15;19.70;1.00
5134;DHT22;2585;48.696;10.066;2022-09-09T15:29:42;19.60;1.00
5134;DHT22;2585;48.696;10.066;2022-09-09T15:32:10;19.90;1.00
5134;DHT22;2585;48.696;10.066;2022-09-09T15:34:37;20.10;1.00
5134;DHT22;2585;48.696;10.066;2022-09-09T15:37:04;20.20;1.00
5134;DHT22;2585;48.696;10.066;2022-09-09T15:39:32;20.30;1.00
5134;DHT22;2585;48.696;10.066;2022-09-09T15:42:04;20.50;1.00
5134;DHT22;2585;48.696;10.066;2022-09-09T15:44:38;20.20;1.00
5134;DHT22;2585;48.696;10.066;2022-09-09T15:47:05;20.20;1.00
5134;DHT22;2585;48.696;10.066;2022-09-09T15:49:32;20.00;1.00
5134;DHT22;2585;48.696;10.066;2022-09-09T15:51:59;19.90;1.00
5134;DHT22;2585;48.696;10.066;2022-09-09T15:54:34;19.80;1.00
5134;DHT22;2585;48.696;10.066;2022-09-09T15:57:04;19.70;1.00
5134;DHT22;2585;48.696;10.066;2022-09-09T15:59:32;19.50;1.00
5134;DHT22;2585;48.696;10.066;2022-09-09T16:02:00;19.30;1.00
5134;DHT22;2585;48.696;10.066;2022-09-09T16:04:28;19.30;1.00
5134;DHT22;2585;48.696;10.066;2022-09-09T16:07:04;19.30;1.00
5134;DHT22;2585;48.696;10.066;2022-09-09T16:09:31;19.30;1.00
5134;DHT22;2585;48.696;10.066;2022-09-09T16:11:59;19.20;1.00
5134;DHT22;2585;48.696;10.066;2022-09-09T16:14:28;19.10;1.00
5134;DHT22;2585;48.696;10.066;2022-09-09T16:16:54;19.10;1.00
5134;DHT22;2585;48.696;10.066;2022-09-09T16:19:24;19.00;1.00
5134;DHT22;2585;48.696;10.066;2022-09-09T16:21:52;18.90;1.00
5134;DHT22;2585;48.696;10.066;2022-09-09T16:24:19;18.80;1.00
5134;DHT22;2585;48.696;10.066;2022-09-09T16:26:48;18.70;1.00
5134;DHT22;2585;48.696;10.066;2022-09-09T16:29:16;18.60;1.00
5134;DHT22;2585;48.696;10.066;2022-09-09T16:31:45;18.40;1.00
5134;DHT22;2585;48.696;10.066;2022-09-09T16:34:13;18.40;1.00
5134;DHT22;2585;48.696;10.066;2022-09-09T16:36:41;18.30;1.00
5134;DHT22;2585;48.696;10.066;2022-09-09T16:39:10;18.20;1.00
5134;DHT22;2585;48.696;10.066;2022-09-09T16:41:38;18.20;1.00
5134;DHT22;2585;48.696;10.066;2022-09-09T16:44:08;18.20;1.00
5134;DHT22;2585;48.696;10.066;2022-09-09T16:46:37;18.10;1.00
5134;DHT22;2585;48.696;10.066;2022-09-09T16:49:10;18.00;1.00
5134;DHT22;2585;48.696;10.066;2022-09-09T16:51:38;18.00;1.00
5134;DHT22;2585;48.696;10.066;2022-09-09T16:54:07;17.90;1.00
5134;DHT22;2585;48.696;10.066;2022-09-09T16:56:37;17.80;1.00
5134;DHT22;2585;48.696;10.066;2022-09-09T16:59:06;17.80;1.00
5134;DHT22;2585;48.696;10.066;2022-09-09T17:01:37;17.80;1.00
5134;DHT22;2585;48.696;10.066;2022-09-09T17:04:07;17.70;1.00
5134;DHT22;2585;48.696;10.066;2022-09-09T17:06:35;17.60;1.00
5134;DHT22;2585;48.696;10.066;2022-09-09T17:09:06;17.50;1.00
5134;DHT22;2585;48.696;10.066;2022-09-09T17:11:34;17.30;1.00
5134;DHT22;2585;48.696;10.066;2022-09-09T17:14:01;17.20;1.00
5134;DHT22;2585;48.696;10.066;2022-09-09T17:16:30;17.20;1.00
5134;DHT22;2585;48.696;10.066;2022-09-09T17:18:58;17.00;1.00
5134;DHT22;2585;48.696;10.066;2022-09-09T17:21:28;17.00;1.00
5134;DHT22;2585;48.696;10.066;2022-09-09T17:23:56;16.90;1.00
5134;DHT22;2585;48.696;10.066;2022-09-09T17:26:28;16.90;1.00
5134;DHT22;2585;48.696;10.066;2022-09-09T17:28:56;16.90;1.00
5134;DHT22;2585;48.696;10.066;2022-09-09T17:31:26;16.90;1.00
5134;DHT22;2585;48.696;10.066;2022-09-09T17:33:54;16.90;1.00
5134;DHT22;2585;48.696;10.066;2022-09-09T17:36:27;16.70;1.00
5134;DHT22;2585;48.696;10.066;2022-09-09T17:38:54;16.80;1.00
5134;DHT22;2585;48.696;10.066;2022-09-09T17:41:33;16.70;1.00
5134;DHT22;2585;48.696;10.066;2022-09-09T17:44:00;16.60;1.00
5134;DHT22;2585;48.696;10.066;2022-09-09T17:46:30;16.60;1.00
5134;DHT22;2585;48.696;10.066;2022-09-09T17:48:59;16.50;1.00
5134;DHT22;2585;48.696;10.066;2022-09-09T17:51:29;16.50;1.00
5134;DHT22;2585;48.696;10.066;2022-09-09T17:54:02;16.40;1.00
5134;DHT22;2585;48.696;10.066;2022-09-09T17:56:30;16.20;1.00
5134;DHT22;2585;48.696;10.066;2022-09-09T17:58:59;16.10;1.00
5134;DHT22;2585;48.696;10.066;2022-09-09T18:01:30;15.90;1.00
5134;DHT22;2585;48.696;10.066;2022-09-09T18:03:59;15.70;1.00
5134;DHT22;2585;48.696;10.066;2022-09-09T18:06:32;15.70;1.00
5134;DHT22;2585;48.696;10.066;2022-09-09T18:09:05;15.70;1.00
5134;DHT22;2585;48.696;10.066;2022-09-09T18:11:40;15.70;1.00
5134;DHT22;2585;48.696;10.066;2022-09-09T18:14:11;15.70;1.00
5134;DHT22;2585;48.696;10.066;2022-09-09T18:16:38;15.80;1.00
5134;DHT22;2585;48.696;10.066;2022-09-09T18:19:08;15.70;1.00
5134;DHT22;2585;48.696;10.066;2022-09-09T18:21:38;15.70;1.00
5134;DHT22;2585;48.696;10.066;2022-09-09T18:24:06;15.70;1.00
5134;DHT22;2585;48.696;10.066;2022-09-09T18:26:34;15.60;1.00
5134;DHT22;2585;48.696;10.066;2022-09-09T18:29:03;15.60;1.00
5134;DHT22;2585;48.696;10.066;2022-09-09T18:31:31;15.50;1.00